Time;durP1;ratioP1;P1;durP2;ratioP2;P2;SDS_P1;SDS_P2;PMS_P1;PMS_P2;Temp;Humidity;BMP_temperature;BMP_pressure;BME280_temperature;BME280_humidity;BME280_pressure;Samples;Min_cycle;Max_cycle;Signal;HPM_P1;HPM_P2
2024/03/25 00:00:15;;;;;;;7.70;4.70;;;;;;;6.34;65.94;98739.61;128353;1262;126824;-61
2024/03/25 00:03:39;;;;;;;7.40;4.50;;;;;;;6.34;65.98;98738.50;128582;1254;113563;-61
2024/03/25 00:06:45;;;;;;;7.00;4.10;;;;;;;6.35;65.99;98740.93;128699;1254;113453;-61
2024/03/25 00:09:49;;;;;;;;;;;;;;;6.34;65.84;98736.08;128593;1258;113473;-61
2024/03/25 00:13:01;;;;;;;5.50;4.10;;;;;;;6.34;66.12;98732.87;128531;1254;113466;-61
2024/03/25 00:16:08;;;;;;;6.10;4.30;;;;;;;6.35;66.15;98734.57;128628;1276;128821;-61
2024/03/25 00:19:17;;;;;;;7.40;4.10;;;;;;;6.37;66.27;98733.77;128638;1257;113530;-62
2024/03/25 00:22:25;;;;;;;7.10;3.60;;;;;;;6.38;66.31;98731.73;128584;1254;113661;-62
2024/03/25 00:25:34;;;;;;;5.40;3.90;;;;;;;6.42;66.23;98732.95;128606;1254;113472;-62
2024/03/25 00:28:40;;;;;;;5.80;4.50;;;;;;;6.46;66.39;98725.98;128360;1254;113580;-62
2024/03/25 00:31:45;;;;;;;5.60;3.50;;;;;;;6.50;66.29;98725.75;128626;1273;128876;-62
2024/03/25 00:34:54;;;;;;;4.00;3.50;;;;;;;6.53;66.42;98723.59;128327;1262;114791;-62
2024/03/25 00:37:59;;;;;;;5.60;3.60;;;;;;;6.57;66.45;98719.80;128363;1254;113624;-62
2024/03/25 00:41:07;;;;;;;4.70;3.20;;;;;;;6.60;66.46;98718.97;128590;1254;113530;-62
2024/03/25 00:44:15;;;;;;;4.60;3.20;;;;;;;6.63;66.40;98715.41;128563;1255;113465;-62
2024/03/25 00:47:22;;;;;;;5.10;3.10;;;;;;;6.65;66.33;98725.00;128181;1264;128532;-62
2024/03/25 00:50:27;;;;;;;5.00;3.20;;;;;;;6.69;66.19;98723.91;128580;1254;114713;-62
2024/03/25 00:53:38;;;;;;;4.30;2.90;;;;;;;6.73;66.41;98726.16;128617;1257;113560;-62
2024/03/25 00:56:49;;;;;;;3.80;2.60;;;;;;;6.75;66.72;98728.69;128370;1261;114062;-62
2024/03/25 00:59:56;;;;;;;3.30;2.20;;;;;;;6.75;66.80;98735.64;128468;1257;113576;-61
2024/03/25 01:03:02;;;;;;;3.90;3.20;;;;;;;6.72;67.32;98742.04;128365;1276;128731;-62
2024/03/25 01:06:11;;;;;;;3.40;2.50;;;;;;;6.67;67.58;98740.16;128602;1257;114540;-62
2024/03/25 01:09:16;;;;;;;4.50;2.40;;;;;;;6.63;68.18;98738.64;128601;1257;113658;-61
2024/03/25 01:12:22;;;;;;;3.30;1.80;;;;;;;6.58;68.49;98740.85;128595;1254;113453;-61
2024/03/25 01:15:36;;;;;;;3.10;2.00;;;;;;;6.53;68.70;98740.10;128735;1254;113548;-62
2024/03/25 01:18:45;;;;;;;3.00;1.90;;;;;;;6.51;69.17;98740.77;128520;1276;128712;-61
2024/03/25 01:21:53;;;;;;;2.00;1.40;;;;;;;6.47;69.73;98740.30;128638;1257;114723;-62
2024/03/25 01:24:58;;;;;;;;;;;;;;;6.42;69.92;98740.90;128575;1255;113490;-61
2024/03/25 01:28:07;;;;;;;2.50;2.00;;;;;;;6.37;70.26;98735.13;128441;1254;113625;-60
2024/03/25 01:31:13;;;;;;;2.50;2.10;;;;;;;6.35;70.41;98733.85;128806;1254;113531;-61
2024/03/25 01:34:19;;;;;;;3.90;1.70;;;;;;;6.32;70.58;98726.59;128523;1254;128824;-62
2024/03/25 01:37:29;;;;;;;;;;;;;;;6.28;70.82;98721.69;128226;1260;114719;-61
2024/03/25 01:40:39;;;;;;;2.80;2.10;;;;;;;6.24;71.03;98719.57;128465;1257;113556;-61
2024/03/25 01:43:46;;;;;;;2.70;2.10;;;;;;;6.21;71.23;98717.44;128689;1254;113594;-61
2024/03/25 01:46:52;;;;;;;2.80;2.50;;;;;;;6.21;71.59;98710.72;128437;1257;113508;-61
2024/03/25 01:50:03;;;;;;;4.40;2.60;;;;;;;6.21;71.90;98707.71;128938;1258;128683;-62
2024/03/25 01:53:11;;;;;;;;;;;;;;;6.18;71.69;98704.85;129065;1257;114726;-61
2024/03/25 01:56:23;;;;;;;3.90;2.60;;;;;;;6.15;71.96;98704.69;129278;1254;113459;-62
2024/03/25 01:59:34;;;;;;;;;;;;;;;6.15;72.35;98705.19;128341;1257;113572;-62
2024/03/25 02:02:47;;;;;;;2.90;2.40;;;;;;;6.15;72.46;98700.23;128329;1257;113669;-62
2024/03/25 02:05:58;;;;;;;3.60;2.30;;;;;;;6.15;72.67;98698.70;128756;1269;128654;-62
2024/03/25 02:09:06;;;;;;;3.80;3.30;;;;;;;6.11;72.78;98696.26;129039;1253;114716;-63
2024/03/25 02:12:13;;;;;;;5.00;3.50;;;;;;;6.09;73.03;98692.63;128682;1262;113586;-62
2024/03/25 02:15:22;;;;;;;6.50;5.40;;;;;;;6.09;73.30;98692.44;128918;1254;113515;-62
2024/03/25 02:18:26;;;;;;;6.10;3.40;;;;;;;6.12;73.42;98692.13;128923;1257;113488;-62
2024/03/25 02:21:31;;;;;;;5.60;4.00;;;;;;;6.13;73.54;98691.18;128892;1276;128778;-62
2024/03/25 02:24:37;;;;;;;7.30;4.00;;;;;;;6.12;73.80;98691.41;128882;1257;114714;-61
2024/03/25 02:27:42;;;;;;;6.60;4.10;;;;;;;6.13;73.90;98697.57;128883;1257;113457;-61
2024/03/25 02:30:49;;;;;;;7.40;4.50;;;;;;;6.14;74.10;98697.98;128916;1254;113487;-61
2024/03/25 02:38:30;;;;;;;4.70;3.60;;;;;;;6.16;74.40;98702.48;129083;1276;128530;-62
2024/03/25 02:41:37;;;;;;;5.90;4.00;;;;;;;6.16;74.50;98706.40;129114;1257;114896;-62
2024/03/25 02:44:44;;;;;;;3.50;2.60;;;;;;;6.14;74.59;98704.93;129084;1254;113505;-62
2024/03/25 02:47:56;;;;;;;3.60;3.10;;;;;;;6.12;74.68;98705.20;129071;1253;114650;-63
2024/03/25 02:51:05;;;;;;;4.30;3.60;;;;;;;6.12;74.72;98704.84;128587;1257;113620;-62
2024/03/25 02:54:12;;;;;;;5.80;4.60;;;;;;;6.13;75.02;98703.92;128539;1257;128943;-62
2024/03/25 02:57:19;;;;;;;5.20;4.40;;;;;;;6.13;75.07;98702.34;128745;1257;115221;-62
2024/03/25 03:00:28;;;;;;;4.80;3.20;;;;;;;6.14;75.10;98703.86;128610;1259;113551;-62
2024/03/25 03:03:34;;;;;;;4.30;3.50;;;;;;;6.16;75.33;98707.09;128785;1257;113466;-62
2024/03/25 03:06:39;;;;;;;4.80;3.40;;;;;;;6.18;75.36;98704.49;128553;1257;113614;-62
2024/03/25 03:09:44;;;;;;;3.80;2.60;;;;;;;6.18;75.58;98705.19;128647;1257;128727;-62
2024/03/25 03:12:53;;;;;;;4.90;3.30;;;;;;;6.16;75.66;98701.42;128748;1259;114716;-62
2024/03/25 03:15:59;;;;;;;5.00;3.20;;;;;;;6.16;75.57;98706.61;128349;1257;113462;-62
2024/03/25 03:19:05;;;;;;;4.10;2.80;;;;;;;6.17;75.67;98704.95;128703;1254;113558;-61
2024/03/25 03:22:15;;;;;;;4.30;2.80;;;;;;;6.17;75.79;98706.55;128693;1253;113484;-61
2024/03/25 03:25:21;;;;;;;3.10;2.10;;;;;;;6.16;75.77;98707.79;128597;1275;128745;-62
2024/03/25 03:28:28;;;;;;;4.50;3.20;;;;;;;6.17;76.03;98710.23;129102;1253;114694;-62
2024/03/25 03:31:35;;;;;;;3.40;2.60;;;;;;;6.17;75.93;98713.06;129098;1254;113483;-63
2024/03/25 03:34:43;;;;;;;3.70;2.90;;;;;;;6.17;75.99;98713.07;129020;1257;113453;-62
2024/03/25 03:37:55;;;;;;;3.20;2.20;;;;;;;6.17;76.03;98717.35;129083;1253;113535;-63
2024/03/25 03:41:06;;;;;;;3.70;2.20;;;;;;;6.14;75.94;98717.11;128839;1257;128925;-63
2024/03/25 03:44:14;;;;;;;3.10;2.30;;;;;;;6.13;76.03;98718.09;128359;1252;115549;-63
2024/03/25 03:47:23;;;;;;;3.10;2.30;;;;;;;6.12;76.12;98723.30;128923;1254;113473;-62
2024/03/25 03:50:29;;;;;;;3.10;2.50;;;;;;;6.11;76.16;98725.66;129015;1256;113445;-61
2024/03/25 03:53:38;;;;;;;3.40;2.10;;;;;;;6.11;76.35;98728.16;129081;1257;113460;-62
2024/03/25 03:56:47;;;;;;;2.50;1.90;;;;;;;6.07;76.52;98731.85;128708;1254;128564;-61
2024/03/25 03:59:56;;;;;;;3.70;2.50;;;;;;;6.05;76.59;98731.10;128673;1253;114728;-61
2024/03/25 04:03:04;;;;;;;2.40;1.90;;;;;;;6.02;76.54;98733.23;128635;1253;113566;-62
2024/03/25 04:06:11;;;;;;;2.00;1.80;;;;;;;6.00;76.66;98733.54;128686;1254;113545;-61
2024/03/25 04:09:18;;;;;;;1.90;1.70;;;;;;;5.99;76.82;98733.58;128752;1253;113473;-61
2024/03/25 04:12:23;;;;;;;2.80;1.90;;;;;;;5.97;76.81;98732.45;128557;1257;128923;-62
2024/03/25 04:15:34;;;;;;;2.60;1.40;;;;;;;5.95;76.89;98733.98;128667;1257;114700;-62
2024/03/25 04:18:42;;;;;;;2.10;1.30;;;;;;;5.95;77.08;98729.02;128575;1257;113498;-61
2024/03/25 04:21:46;;;;;;;2.50;1.40;;;;;;;5.96;77.09;98730.75;128480;1254;113677;-62
2024/03/25 04:24:53;;;;;;;2.50;1.40;;;;;;;5.96;77.13;98726.45;128315;1262;113617;-62
2024/03/25 04:28:01;;;;;;;2.90;1.70;;;;;;;5.93;77.23;98725.53;128674;1258;128932;-62
2024/03/25 04:31:09;;;;;;;2.40;1.60;;;;;;;5.92;77.39;98727.36;128674;1253;114751;-62
2024/03/25 04:34:20;;;;;;;3.20;2.30;;;;;;;5.94;77.39;98732.62;128629;1253;113509;-62
2024/03/25 04:37:28;;;;;;;3.00;2.10;;;;;;;5.95;77.53;98736.27;128696;1257;113519;-62
2024/03/25 04:40:36;;;;;;;3.50;2.10;;;;;;;5.95;77.63;98736.80;128574;1253;113534;-62
2024/03/25 04:43:47;;;;;;;2.30;2.00;;;;;;;5.96;77.72;98734.27;128519;1276;128709;-62
2024/03/25 04:46:53;;;;;;;2.40;1.60;;;;;;;5.95;77.60;98737.84;128569;1257;114710;-62
2024/03/25 04:49:58;;;;;;;3.10;1.90;;;;;;;5.96;77.82;98740.29;128728;1254;113517;-62
2024/03/25 04:53:08;;;;;;;2.90;1.90;;;;;;;5.98;77.92;98741.92;128746;1257;113542;-62
2024/03/25 04:56:14;;;;;;;3.50;2.10;;;;;;;5.99;77.88;98743.65;128675;1257;113590;-62
2024/03/25 04:59:20;;;;;;;3.20;2.10;;;;;;;6.01;78.16;98747.63;128740;1276;128891;-62
2024/03/25 05:02:28;;;;;;;4.00;2.60;;;;;;;6.04;78.35;98746.95;128349;1261;114675;-62
2024/03/25 05:05:36;;;;;;;4.90;2.70;;;;;;;6.06;78.24;98746.83;128283;1254;113706;-62
2024/03/25 05:08:53;;;;;;;;;;;;;;;;;;;;;
2024/03/25 05:12:00;;;;;;;3.80;2.40;;;;;;;6.07;78.17;98756.33;128655;1257;114752;-62
2024/03/25 05:15:06;;;;;;;3.60;2.50;;;;;;;6.07;78.14;98760.59;128198;1264;128564;-62
2024/03/25 05:18:14;;;;;;;3.60;2.10;;;;;;;6.09;78.21;98763.69;128686;1254;114713;-60
2024/03/25 05:21:22;;;;;;;4.50;2.20;;;;;;;6.10;78.13;98761.68;128784;1257;113474;-61
2024/03/25 05:24:28;;;;;;;3.80;2.50;;;;;;;6.11;78.44;98765.52;128773;1257;113603;-61
2024/03/25 05:27:39;;;;;;;3.10;1.80;;;;;;;6.14;78.46;98764.85;128441;1262;113640;-61
2024/03/25 05:30:52;;;;;;;3.60;2.30;;;;;;;6.17;78.45;98767.48;128659;1261;128717;-61
2024/03/25 05:34:02;;;;;;;;;;;;;;;6.19;78.43;98767.94;128398;1263;114771;-62
2024/03/25 05:37:11;;;;;;;4.10;2.00;;;;;;;6.18;78.35;98772.41;128779;1257;113562;-62
2024/03/25 05:40:17;;;;;;;3.70;2.20;;;;;;;6.22;78.64;98777.67;128820;1254;113747;-62
2024/03/25 05:43:23;;;;;;;3.00;2.30;;;;;;;6.27;78.86;98779.19;128873;1253;113493;-62
2024/03/25 05:46:27;;;;;;;3.10;1.70;;;;;;;6.30;78.65;98789.66;128793;1259;128750;-62
2024/03/25 05:49:33;;;;;;;2.20;1.80;;;;;;;6.27;78.48;98798.48;128493;1257;447732;-62
2024/03/25 05:52:41;;;;;;;2.40;1.70;;;;;;;6.24;78.71;98811.61;129012;1253;113553;-62
2024/03/25 05:55:44;;;;;;;3.20;1.30;;;;;;;6.21;78.41;98815.29;129017;1253;113543;-63
2024/03/25 05:58:52;;;;;;;2.10;1.40;;;;;;;6.17;78.49;98820.65;129138;1253;114560;-61
2024/03/25 06:02:00;;;;;;;1.80;1.40;;;;;;;6.15;78.41;98825.02;128800;1254;128609;-63
2024/03/25 06:05:10;;;;;;;1.70;1.30;;;;;;;6.11;78.34;98829.87;130852;1254;114508;-62
2024/03/25 06:11:56;;;;;;;2.40;1.90;;;;;;;6.05;78.63;98839.23;128671;1257;113664;-61
2024/03/25 06:15:10;;;;;;;2.00;1.70;;;;;;;6.06;79.04;98839.52;128747;1256;113648;-62
2024/03/25 06:18:19;;;;;;;2.80;2.00;;;;;;;6.07;79.02;98842.80;128764;1253;129265;-62
2024/03/25 06:21:36;;;;;;;2.50;2.00;;;;;;;6.11;79.08;98842.66;129549;1257;114694;-62
2024/03/25 06:24:50;;;;;;;2.60;1.50;;;;;;;6.13;79.24;98849.08;128946;1254;113629;-62
2024/03/25 06:27:57;;;;;;;3.20;1.80;;;;;;;6.15;79.17;98851.82;128960;1257;113446;-62
2024/03/25 06:34:31;;;;;;;3.20;1.80;;;;;;;6.30;79.65;98855.77;128773;1276;128765;-61
2024/03/25 06:37:40;;;;;;;2.70;2.10;;;;;;;6.38;79.72;98862.23;128821;1261;114726;-61
2024/03/25 06:40:46;;;;;;;3.40;2.20;;;;;;;6.43;79.70;98869.59;128737;1257;113444;-63
2024/03/25 06:43:55;;;;;;;2.90;1.60;;;;;;;6.46;79.75;98871.88;128600;1257;113420;-62
2024/03/25 06:46:58;;;;;;;2.80;1.90;;;;;;;6.49;79.74;98878.98;128831;1254;113436;-63
2024/03/25 06:50:06;;;;;;;2.00;1.40;;;;;;;6.51;79.67;98882.80;128766;1276;128790;-64
2024/03/25 06:53:13;;;;;;;1.60;1.30;;;;;;;6.52;79.51;98885.39;128816;1254;114755;-63
2024/03/25 06:56:23;;;;;;;2.50;1.50;;;;;;;6.56;79.70;98891.23;128801;1254;113664;-61
2024/03/25 06:59:36;;;;;;;1.70;0.90;;;;;;;6.59;79.63;98892.50;128698;1253;113426;-62
2024/03/25 07:02:47;;;;;;;1.60;1.50;;;;;;;6.63;79.57;98897.95;128861;1253;113547;-61
2024/03/25 07:05:56;;;;;;;2.20;1.60;;;;;;;6.66;79.48;98900.96;128722;1276;128712;-62
2024/03/25 07:09:03;;;;;;;2.00;1.70;;;;;;;6.70;79.46;98906.08;128277;1262;114735;-62
2024/03/25 07:12:13;;;;;;;3.30;1.60;;;;;;;6.75;79.45;98911.48;128703;1254;113511;-62
2024/03/25 07:15:18;;;;;;;2.20;1.90;;;;;;;6.80;79.53;98913.48;128666;1257;113503;-62
2024/03/25 07:18:24;;;;;;;2.20;1.60;;;;;;;6.90;79.60;98917.02;128741;1257;114704;-63
2024/03/25 07:21:29;;;;;;;3.30;2.00;;;;;;;7.03;79.83;98919.45;128699;1269;128753;-62
2024/03/25 07:24:34;;;;;;;3.10;2.30;;;;;;;7.11;79.75;98927.00;128725;1253;114410;-63
2024/03/25 07:27:40;;;;;;;3.00;1.90;;;;;;;7.21;79.79;98928.20;128743;1257;113638;-62
2024/03/25 07:30:45;;;;;;;2.80;2.20;;;;;;;7.31;80.14;98931.54;128744;1254;113403;-62
2024/03/25 07:33:53;;;;;;;3.90;2.50;;;;;;;7.36;79.62;98935.33;128674;1257;113455;-62
2024/03/25 07:37:02;;;;;;;4.80;2.30;;;;;;;7.34;79.43;98936.36;128679;1253;128791;-62
2024/03/25 07:40:13;;;;;;;3.40;2.40;;;;;;;7.29;79.49;98936.25;128711;1257;114730;-62
2024/03/25 07:43:18;;;;;;;3.80;2.70;;;;;;;7.34;79.86;98940.44;128597;1254;113505;-62
2024/03/25 07:46:26;;;;;;;3.30;2.30;;;;;;;7.59;80.30;98939.65;128647;1253;113576;-62
2024/03/25 07:49:37;;;;;;;3.00;2.70;;;;;;;7.99;80.82;98942.80;128675;1253;113492;-61
2024/03/25 07:52:46;;;;;;;3.60;2.50;;;;;;;8.42;80.75;98947.69;128626;1276;128856;-62
2024/03/25 07:55:56;;;;;;;2.70;2.20;;;;;;;8.74;80.50;98945.85;128634;1253;113463;-62
2024/03/25 07:59:05;;;;;;;2.80;2.40;;;;;;;9.01;80.01;98946.11;128838;1254;113505;-61
2024/03/25 08:02:08;;;;;;;;;;;;;;;9.19;79.71;98948.30;128739;1259;113632;-63
2024/03/25 08:05:16;;;;;;;2.30;1.90;;;;;;;9.41;79.54;98953.98;128764;1257;113574;-62
2024/03/25 08:08:23;;;;;;;2.30;2.10;;;;;;;9.56;78.83;98959.05;128639;1276;128905;-62
2024/03/25 08:11:31;;;;;;;3.50;1.70;;;;;;;9.66;78.51;98961.04;128673;1256;114719;-62
2024/03/25 08:14:35;;;;;;;2.40;1.50;;;;;;;9.90;78.44;98963.39;128733;1254;113539;-63
2024/03/25 08:17:47;;;;;;;2.00;1.40;;;;;;;10.12;77.80;98963.48;128654;1252;113562;-62
2024/03/25 08:20:56;;;;;;;1.90;1.50;;;;;;;10.11;76.78;98970.15;128679;1256;113493;-63
2024/03/25 08:24:02;;;;;;;3.40;0.90;;;;;;;10.06;76.31;98976.41;128658;1275;127833;-62
2024/03/25 08:27:08;;;;;;;1.80;1.00;;;;;;;9.97;76.06;98978.44;128777;1256;114577;-63
2024/03/25 08:30:16;;;;;;;3.30;1.30;;;;;;;9.85;75.61;98986.53;128630;1254;113472;-63
2024/03/25 08:33:24;;;;;;;1.50;1.10;;;;;;;9.83;75.86;98991.52;128674;1253;113518;-63
2024/03/25 08:36:28;;;;;;;1.70;0.90;;;;;;;9.76;75.51;98996.59;128543;1257;113661;-63
2024/03/25 08:39:33;;;;;;;1.50;0.90;;;;;;;9.70;75.51;99002.66;128761;1254;128899;-62
2024/03/25 08:42:38;;;;;;;1.90;1.30;;;;;;;9.72;75.79;99001.51;128670;1254;113942;-62
2024/03/25 08:45:47;;;;;;;2.10;1.00;;;;;;;9.78;75.86;99005.77;128682;1254;113545;-62
2024/03/25 08:48:55;;;;;;;;;;;;;;;9.85;75.86;99008.63;128696;1254;114688;-63
2024/03/25 08:52:03;;;;;;;1.70;1.20;;;;;;;9.87;75.36;99014.38;128641;1256;113550;-63
2024/03/25 08:55:08;;;;;;;1.90;1.20;;;;;;;9.82;74.90;99017.43;128674;1252;127862;-62
2024/03/25 08:58:16;;;;;;;2.60;2.20;;;;;;;9.76;75.17;99023.66;128697;1255;113628;-62
2024/03/25 09:01:24;;;;;;;2.70;2.40;;;;;;;9.72;75.13;99029.48;128721;1252;113444;-62
2024/03/25 09:04:30;;;;;;;3.50;3.20;;;;;;;9.72;75.45;99030.56;128847;1253;113547;-63
2024/03/25 09:07:38;;;;;;;3.10;2.50;;;;;;;9.83;75.74;99030.20;128682;1253;113495;-63
2024/03/25 09:11:07;;;;;;;2.10;1.90;;;;;;;9.92;75.48;99033.85;128162;1276;128227;-63
2024/03/25 09:14:12;;;;;;;;;;;;;;;10.04;75.25;99039.84;128631;1257;113888;-62
2024/03/25 09:17:23;;;;;;;1.90;1.40;;;;;;;10.11;75.00;99042.96;128617;1253;113487;-62
2024/03/25 09:20:36;;;;;;;1.70;1.40;;;;;;;10.22;75.16;99043.77;128561;1254;113543;-62
2024/03/25 09:23:42;;;;;;;2.60;1.00;;;;;;;10.31;74.67;99049.44;128178;1254;113667;-63
2024/03/25 09:26:54;;;;;;;1.60;0.80;;;;;;;10.38;74.29;99058.45;128597;1257;128581;-63
2024/03/25 09:29:59;;;;;;;1.60;0.90;;;;;;;10.45;74.34;99058.34;128817;1254;114611;-62
2024/03/25 09:33:06;;;;;;;4.80;1.70;;;;;;;10.52;74.14;99062.98;128723;1254;113481;-62
2024/03/25 09:36:14;;;;;;;5.10;2.80;;;;;;;10.56;73.68;99067.24;128838;1254;113521;-62
2024/03/25 09:39:19;;;;;;;3.90;2.40;;;;;;;10.51;73.85;99069.86;128703;1258;113535;-63
2024/03/25 09:42:37;;;;;;;2.90;1.70;;;;;;;10.53;73.98;99070.44;128582;1276;128706;-62
2024/03/25 09:45:46;;;;;;;2.80;2.20;;;;;;;10.65;74.33;99074.65;128414;1254;114999;-62
2024/03/25 09:48:55;;;;;;;3.70;2.60;;;;;;;10.76;74.21;99075.30;128751;1253;113192;-63
2024/03/25 09:52:05;;;;;;;1.90;1.30;;;;;;;10.94;74.63;99075.80;128718;1254;113520;-63
2024/03/25 09:55:16;;;;;;;3.10;1.90;;;;;;;11.10;73.84;99076.33;128584;1254;113554;-63
2024/03/25 09:58:24;;;;;;;2.40;1.60;;;;;;;11.22;73.68;99072.78;128647;1259;127885;-63
2024/03/25 10:01:29;;;;;;;1.60;1.20;;;;;;;11.41;73.07;99076.23;128696;1253;113902;-63
2024/03/25 10:04:35;;;;;;;2.10;1.50;;;;;;;11.63;73.07;99074.81;128825;1254;113442;-63
2024/03/25 10:07:44;;;;;;;1.70;1.30;;;;;;;11.84;73.19;99079.70;128724;1253;113583;-64
2024/03/25 10:10:55;;;;;;;2.50;1.20;;;;;;;12.05;72.75;99084.05;128685;1257;113564;-64
2024/03/25 10:14:01;;;;;;;2.20;1.60;;;;;;;12.08;71.64;99085.30;128649;1254;130641;-62
2024/03/25 10:17:06;;;;;;;1.80;0.90;;;;;;;12.05;71.33;99092.14;128741;1256;114304;-62
2024/03/25 10:20:21;;;;;;;1.60;1.00;;;;;;;11.97;71.29;99093.58;128822;1254;113533;-62
2024/03/25 10:23:26;;;;;;;2.70;1.70;;;;;;;12.00;71.54;99091.25;128702;1254;113470;-62
2024/03/25 10:26:38;;;;;;;1.80;1.20;;;;;;;12.14;71.32;99102.02;128611;1256;113546;-62
2024/03/25 10:29:43;;;;;;;1.10;0.90;;;;;;;12.25;70.85;99105.63;128581;1254;127796;-61
2024/03/25 10:33:03;;;;;;;1.80;0.50;;;;;;;12.55;70.95;99108.39;128559;1254;113921;-62
2024/03/25 10:36:13;;;;;;;1.50;0.70;;;;;;;13.03;71.58;99106.48;128727;1253;113506;-62
2024/03/25 10:39:28;;;;;;;2.40;1.30;;;;;;;13.39;70.36;99102.54;128683;1254;113414;-62
2024/03/25 10:42:38;;;;;;;2.10;1.30;;;;;;;13.52;69.32;99100.48;128649;1256;113540;-61
2024/03/25 10:45:53;;;;;;;3.00;1.50;;;;;;;13.56;69.08;99101.41;128560;1275;128700;-62
2024/03/25 10:49:27;;;;;;;1.80;1.10;;;;;;;13.57;68.30;99107.92;128664;1259;114469;-62
2024/03/25 10:52:37;;;;;;;1.60;0.80;;;;;;;13.41;67.16;99106.50;128832;1254;113473;-62
2024/03/25 10:55:43;;;;;;;3.30;1.10;;;;;;;13.25;67.24;99112.48;128685;1254;113531;-62
2024/03/25 10:58:50;;;;;;;2.20;1.40;;;;;;;13.12;67.07;99118.13;128660;1256;113584;-62
2024/03/25 11:01:57;;;;;;;2.00;1.30;;;;;;;13.01;66.99;99120.47;128666;1276;128701;-61
2024/03/25 11:05:03;;;;;;;;;;;;;;;12.95;66.98;99125.06;128727;1254;113507;-62
2024/03/25 11:08:16;;;;;;;2.50;1.40;;;;;;;12.72;67.00;99133.05;128430;1252;113749;-61
2024/03/25 11:11:33;;;;;;;2.80;1.30;;;;;;;12.45;67.18;99140.13;128673;1254;113510;-62
2024/03/25 11:14:41;;;;;;;1.20;0.60;;;;;;;12.19;66.95;99139.92;128757;1256;113510;-61
2024/03/25 11:17:51;;;;;;;0.80;0.40;;;;;;;11.87;66.63;99139.94;128717;1276;128874;-63
2024/03/25 11:21:11;;;;;;;3.60;3.00;;;;;;;11.53;66.58;99138.66;128686;1256;114485;-63
2024/03/25 11:24:28;;;;;;;2.40;1.90;;;;;;;11.25;66.64;99136.73;128692;1254;113507;-63
2024/03/25 11:27:43;;;;;;;;;;;;;;;11.07;67.14;99135.50;128761;1254;113497;-63
2024/03/25 11:30:52;;;;;;;1.70;0.50;;;;;;;10.94;67.67;99136.23;128659;1256;113502;-61
2024/03/25 11:34:09;;;;;;;1.60;1.10;;;;;;;10.87;68.03;99130.24;128682;1275;128645;-61
2024/03/25 11:37:22;;;;;;;1.70;1.40;;;;;;;10.88;68.68;99132.54;128833;1256;113988;-62
2024/03/25 11:45:06;;;;;;;2.50;1.30;;;;;;;10.99;69.35;99138.16;128578;1257;113487;-62
2024/03/25 11:48:15;;;;;;;3.40;1.80;;;;;;;11.20;69.52;99130.63;128663;1256;113476;-63
2024/03/25 11:51:24;;;;;;;3.30;1.70;;;;;;;11.44;70.11;99125.02;128579;1276;128774;-63
2024/03/25 11:54:36;;;;;;;2.30;1.90;;;;;;;11.62;70.22;99123.66;128459;1262;114333;-62
2024/03/25 11:57:42;;;;;;;1.90;1.20;;;;;;;11.89;70.02;99124.75;128577;1254;115464;-63
2024/03/25 12:00:49;;;;;;;1.70;1.20;;;;;;;12.15;70.11;99127.13;128628;1254;114662;-63
2024/03/25 12:04:09;;;;;;;3.10;1.30;;;;;;;12.25;68.96;99130.90;128637;1254;114545;-63
2024/03/25 12:07:14;;;;;;;1.70;1.50;;;;;;;12.29;68.67;99132.35;128621;1276;127767;-63
2024/03/25 12:13:53;;;;;;;;;;;;;;;11.96;67.34;99141.61;128658;1254;113469;-61
2024/03/25 12:17:06;;;;;;;3.80;2.30;;;;;;;11.76;67.92;99140.58;128661;1254;113568;-61
2024/03/25 12:20:13;;;;;;;4.30;2.40;;;;;;;11.74;68.63;99141.83;128654;1254;113514;-63
2024/03/25 12:23:19;;;;;;;2.40;1.70;;;;;;;11.74;68.38;99146.42;128674;1276;128758;-63
2024/03/25 12:26:23;;;;;;;2.80;1.40;;;;;;;11.66;68.35;99143.61;128648;1258;114317;-62
2024/03/25 12:29:34;;;;;;;2.50;1.90;;;;;;;11.57;68.55;99143.20;128285;1254;113813;-62
2024/03/25 12:32:42;;;;;;;3.00;1.80;;;;;;;11.47;68.85;99144.08;128722;1259;113467;-62
2024/03/25 12:35:49;;;;;;;;;;;;;;;11.42;69.50;99138.92;128444;1260;113552;-62
2024/03/25 12:39:02;;;;;;;2.50;1.50;;;;;;;11.35;69.91;99132.79;128318;1276;127738;-61
2024/03/25 12:42:11;;;;;;;3.30;2.30;;;;;;;11.33;69.46;99135.98;128598;1254;114307;-61
2024/03/25 12:45:20;;;;;;;2.90;2.00;;;;;;;11.28;69.55;99139.53;128654;1254;113564;-61
2024/03/25 12:48:26;;;;;;;2.50;2.20;;;;;;;11.22;69.01;99140.69;128722;1258;113488;-62
2024/03/25 12:51:31;;;;;;;3.50;2.60;;;;;;;11.22;69.50;99139.61;128690;1259;113512;-62
2024/03/25 12:54:40;;;;;;;3.10;2.00;;;;;;;11.20;68.58;99138.81;128695;1276;128951;-62
2024/03/25 12:57:49;;;;;;;3.90;2.50;;;;;;;11.19;69.18;99143.38;128249;1259;113881;-62
2024/03/25 13:01:00;;;;;;;5.60;3.20;;;;;;;11.22;69.92;99145.10;128742;1254;113498;-62
2024/03/25 13:04:11;;;;;;;4.60;2.90;;;;;;;11.30;69.28;99143.84;128669;1260;114343;-62
2024/03/25 13:07:16;;;;;;;3.30;2.50;;;;;;;11.40;69.38;99141.34;128711;1257;113548;-62
2024/03/25 13:10:23;;;;;;;2.90;1.80;;;;;;;11.49;69.27;99144.81;128619;1275;127738;-62
2024/03/25 13:13:40;;;;;;;2.80;2.40;;;;;;;11.58;68.66;99143.66;128898;1254;113996;-63
2024/03/25 13:16:45;;;;;;;7.50;5.40;;;;;;;11.67;68.93;99143.03;128788;1254;113442;-62
2024/03/25 13:19:52;;;;;;;5.90;3.70;;;;;;;11.81;68.74;99145.73;128599;1257;113574;-64
2024/03/25 13:23:01;;;;;;;4.30;2.50;;;;;;;11.93;68.45;99147.57;128838;1254;113432;-62
2024/03/25 13:26:07;;;;;;;3.40;2.40;;;;;;;12.06;68.01;99138.95;128306;1275;128055;-62
2024/03/25 13:29:11;;;;;;;;;;;;;;;12.15;68.07;99147.91;128758;1256;114311;-62
2024/03/25 13:32:15;;;;;;;2.30;1.40;;;;;;;12.11;67.15;99144.65;128871;1254;114789;-62
2024/03/25 13:35:27;;;;;;;2.50;1.50;;;;;;;11.93;66.78;99143.98;128938;1254;113598;-62
2024/03/25 13:38:35;;;;;;;2.20;1.40;;;;;;;11.73;66.26;99147.44;128678;1257;113447;-62
2024/03/25 13:41:44;;;;;;;1.60;1.10;;;;;;;11.54;66.38;99144.13;128676;1275;127694;-61
2024/03/25 13:44:50;;;;;;;1.70;1.30;;;;;;;11.41;66.04;99149.52;128553;1260;114719;-62
2024/03/25 13:47:56;;;;;;;2.80;1.70;;;;;;;11.26;66.25;99156.14;128740;1257;113472;-62
2024/03/25 13:51:11;;;;;;;2.30;1.40;;;;;;;11.14;66.46;99158.57;128874;1254;113543;-62
2024/03/25 13:54:15;;;;;;;1.60;1.10;;;;;;;11.14;66.57;99162.69;129346;1257;113426;-63
2024/03/25 13:57:19;;;;;;;1.70;1.10;;;;;;;11.15;66.20;99161.71;129489;1266;128777;-62
2024/03/25 14:00:28;;;;;;;2.10;1.20;;;;;;;11.03;65.36;99160.97;128758;1257;114391;-61
2024/03/25 14:03:38;;;;;;;2.70;1.50;;;;;;;10.85;65.46;99162.52;128807;1254;113553;-62
2024/03/25 14:06:45;;;;;;;2.00;1.30;;;;;;;10.69;65.82;99166.28;128708;1254;113523;-62
2024/03/25 14:09:52;;;;;;;2.00;1.70;;;;;;;10.56;65.96;99170.56;128745;1254;113549;-62
2024/03/25 14:13:00;;;;;;;2.10;1.50;;;;;;;10.41;65.94;99174.03;128439;1276;127849;-62
2024/03/25 14:16:08;;;;;;;2.20;1.10;;;;;;;10.21;65.82;99177.87;128606;1258;113888;-62
2024/03/25 14:19:17;;;;;;;3.30;2.90;;;;;;;10.03;66.42;99189.70;128685;1254;113493;-62
2024/03/25 14:22:26;;;;;;;3.10;1.90;;;;;;;9.95;66.69;99195.76;128644;1254;113608;-62
2024/03/25 14:25:30;;;;;;;3.50;2.10;;;;;;;9.94;67.00;99202.77;128442;1257;113562;-62
2024/03/25 14:28:40;;;;;;;2.60;2.10;;;;;;;9.99;67.53;99206.90;128699;1254;127430;-62
2024/03/25 14:31:48;;;;;;;1.90;1.20;;;;;;;10.05;67.72;99210.12;128591;1256;114710;-62
2024/03/25 14:35:01;;;;;;;2.90;1.80;;;;;;;10.16;67.67;99212.28;128805;1254;113432;-61
2024/03/25 14:38:08;;;;;;;3.10;1.90;;;;;;;10.23;67.68;99212.18;128698;1254;113582;-61
2024/03/25 14:41:21;;;;;;;2.40;2.00;;;;;;;10.32;68.15;99208.72;128730;1256;113459;-62
2024/03/25 14:44:27;;;;;;;1.80;1.40;;;;;;;10.37;67.76;99206.25;128749;1257;128933;-61
2024/03/25 14:47:46;;;;;;;2.60;1.30;;;;;;;10.38;67.94;99209.76;128719;1257;114102;-62
2024/03/25 14:50:54;;;;;;;2.40;1.40;;;;;;;10.44;67.67;99209.54;128447;1255;113576;-62
2024/03/25 14:54:04;;;;;;;2.00;1.40;;;;;;;10.53;67.88;99207.02;128658;1256;115235;-62
2024/03/25 14:57:09;;;;;;;2.30;1.30;;;;;;;10.58;67.19;99205.80;128768;1257;113438;-62